Time;durP1;ratioP1;P1;durP2;ratioP2;P2;SDS_P1;SDS_P2;PMS_P1;PMS_P2;Temp;Humidity;BMP_temperature;BMP_pressure;BME280_temperature;BME280_humidity;BME280_pressure;Samples;Min_cycle;Max_cycle;Signal;HPM_P1;HPM_P2
2023/12/08 00:00:00;;;;;;;21.08;11.38;;;1.80;99.90;;;;;;5065015;28;20035;-79
2023/12/08 00:02:26;;;;;;;18.05;10.70;;;3.00;99.90;;;;;;5081254;28;20020;-79
2023/12/08 00:04:51;;;;;;;16.67;10.40;;;3.20;99.90;;;;;;5033276;28;20015;-79
2023/12/08 00:07:17;;;;;;;21.67;11.40;;;2.50;99.90;;;;;;5060856;28;20024;-79
2023/12/08 00:09:43;;;;;;;20.98;11.48;;;1.40;99.90;;;;;;5068118;28;20027;-79
2023/12/08 00:12:08;;;;;;;18.17;11.07;;;1.90;99.90;;;;;;5049762;28;20028;-79
2023/12/08 00:14:34;;;;;;;17.02;10.38;;;3.00;99.90;;;;;;5043051;28;20024;-79
2023/12/08 00:17:00;;;;;;;19.42;10.57;;;1.40;99.90;;;;;;5045830;28;20028;-79
2023/12/08 00:19:25;;;;;;;18.20;10.90;;;1.40;99.90;;;;;;5063965;28;20036;-79
2023/12/08 00:21:51;;;;;;;18.95;10.65;;;2.80;99.90;;;;;;5082890;28;20047;-79
2023/12/08 00:24:18;;;;;;;18.15;11.05;;;2.70;99.90;;;;;;5065187;28;20040;-79
2023/12/08 00:26:44;;;;;;;17.48;10.68;;;2.40;99.90;;;;;;5065553;28;20028;-79
2023/12/08 00:29:09;;;;;;;18.70;10.65;;;1.40;99.90;;;;;;5065620;28;20051;-78
2023/12/08 00:31:35;;;;;;;18.85;10.23;;;1.40;99.90;;;;;;5065088;28;20126;-79
2023/12/08 00:34:01;;;;;;;16.38;9.63;;;1.40;99.90;;;;;;5081527;28;20111;-78
2023/12/08 00:36:27;;;;;;;18.10;10.27;;;2.10;99.90;;;;;;5082581;28;20077;-79
2023/12/08 00:38:54;;;;;;;20.17;10.75;;;3.00;99.90;;;;;;5066160;28;20020;-79
2023/12/08 00:41:19;;;;;;;19.80;11.50;;;3.70;99.90;;;;;;5068346;28;20040;-79
2023/12/08 00:43:45;;;;;;;18.83;10.95;;;1.50;99.90;;;;;;5031316;28;20173;-79
2023/12/08 00:46:11;;;;;;;18.52;9.80;;;1.60;99.90;;;;;;5065482;28;20020;-79
2023/12/08 00:48:37;;;;;;;17.25;10.27;;;1.50;99.90;;;;;;5082769;28;20027;-79
2023/12/08 00:51:03;;;;;;;18.17;11.18;;;2.40;99.90;;;;;;5064544;28;20285;-79
2023/12/08 00:53:28;;;;;;;17.48;10.50;;;1.40;99.90;;;;;;5082496;28;20096;-78
2023/12/08 00:55:54;;;;;;;19.85;10.95;;;1.40;99.90;;;;;;5064281;28;20024;-79
2023/12/08 00:58:20;;;;;;;18.67;10.73;;;1.50;99.90;;;;;;5047526;28;20087;-79
2023/12/08 01:00:46;;;;;;;17.63;10.68;;;1.40;99.90;;;;;;5047211;28;20278;-79
2023/12/08 01:03:12;;;;;;;20.08;10.75;;;1.40;99.90;;;;;;5049040;28;20023;-80
2023/12/08 01:05:38;;;;;;;18.45;11.23;;;1.40;99.90;;;;;;5064485;28;20480;-79
2023/12/08 01:08:05;;;;;;;19.75;10.73;;;1.40;99.90;;;;;;5061906;28;20075;-79
2023/12/08 01:10:31;;;;;;;18.95;11.45;;;1.40;99.90;;;;;;5065088;28;20217;-79
2023/12/08 01:12:56;;;;;;;19.30;10.95;;;1.40;99.90;;;;;;5064947;28;20035;-79
2023/12/08 01:15:22;;;;;;;19.88;10.95;;;2.10;99.90;;;;;;5036285;28;20013;-79
2023/12/08 01:17:48;;;;;;;17.20;9.80;;;1.70;99.90;;;;;;5064381;28;20020;-79
2023/12/08 01:20:13;;;;;;;18.10;10.57;;;1.40;99.90;;;;;;5050064;28;20043;-79
2023/12/08 01:22:39;;;;;;;19.30;11.60;;;1.40;99.90;;;;;;5082035;28;20030;-79
2023/12/08 01:25:06;;;;;;;17.85;10.55;;;2.40;99.90;;;;;;5080683;28;20028;-79
2023/12/08 01:27:31;;;;;;;17.88;10.57;;;1.40;99.90;;;;;;5063999;28;20039;-79
2023/12/08 01:29:57;;;;;;;18.25;10.95;;;1.40;99.90;;;;;;5032494;28;20182;-79
2023/12/08 01:32:23;;;;;;;17.90;10.77;;;2.80;99.90;;;;;;5065310;28;20240;-79
2023/12/08 01:34:48;;;;;;;19.13;10.15;;;2.80;99.90;;;;;;5079483;28;20431;-79
2023/12/08 01:37:14;;;;;;;18.20;10.85;;;3.00;99.90;;;;;;5030823;28;20427;-79
2023/12/08 01:39:40;;;;;;;18.02;10.63;;;2.40;99.90;;;;;;5049196;28;20035;-78
2023/12/08 01:42:06;;;;;;;17.42;10.43;;;1.40;99.90;;;;;;5048554;28;20289;-79
2023/12/08 01:44:31;;;;;;;18.35;10.98;;;1.70;99.90;;;;;;5078248;28;20016;-79
2023/12/08 01:46:57;;;;;;;17.40;10.27;;;2.30;99.90;;;;;;5064628;28;20089;-79
2023/12/08 01:49:23;;;;;;;18.33;10.88;;;1.40;99.90;;;;;;5065498;28;20028;-79
2023/12/08 01:51:49;;;;;;;22.92;11.73;;;1.40;99.90;;;;;;5062983;28;20024;-79
2023/12/08 01:54:16;;;;;;;18.38;10.80;;;1.90;99.90;;;;;;5081553;28;20241;-79
2023/12/08 01:56:42;;;;;;;18.70;10.68;;;1.40;99.90;;;;;;5063866;28;20016;-79
2023/12/08 01:59:09;;;;;;;18.27;11.27;;;1.40;99.90;;;;;;5078975;28;20035;-79
2023/12/08 02:01:35;;;;;;;20.73;11.27;;;1.40;99.90;;;;;;5031810;28;20125;-79
2023/12/08 02:04:02;;;;;;;18.65;10.43;;;1.40;99.90;;;;;;5065434;28;20087;-79
2023/12/08 02:06:28;;;;;;;20.30;11.20;;;1.40;99.90;;;;;;5062945;28;20013;-79
2023/12/08 02:08:54;;;;;;;19.83;10.77;;;2.90;99.90;;;;;;5063280;28;20042;-79
2023/12/08 02:11:20;;;;;;;18.05;10.93;;;1.40;99.90;;;;;;5050019;28;20084;-79
2023/12/08 02:13:46;;;;;;;17.90;11.32;;;2.00;99.90;;;;;;5032096;28;20200;-79
2023/12/08 02:16:18;;;;;;;19.45;11.98;;;1.40;99.90;;;;;;5040070;28;20146;-79
2023/12/08 02:18:44;;;;;;;19.70;11.82;;;1.40;99.90;;;;;;5079133;28;20046;-79
2023/12/08 02:21:13;;;;;;;17.60;10.52;;;1.90;99.90;;;;;;5046942;28;20273;-78
2023/12/08 02:23:48;;;;;;;18.50;11.15;;;1.40;99.90;;;;;;5048740;28;20031;-79
2023/12/08 02:26:14;;;;;;;19.25;10.70;;;1.40;99.90;;;;;;5064168;28;20083;-79
2023/12/08 02:28:40;;;;;;;18.80;10.93;;;1.50;99.90;;;;;;5063782;28;20096;-79
2023/12/08 02:31:10;;;;;;;20.85;10.95;;;1.40;99.90;;;;;;5083708;28;20251;-79
2023/12/08 02:33:37;;;;;;;18.42;10.60;;;1.90;99.90;;;;;;5083832;28;20212;-79
2023/12/08 02:36:05;;;;;;;18.85;11.20;;;2.60;99.90;;;;;;5085830;28;20270;-79
2023/12/08 02:38:32;;;;;;;19.70;11.60;;;1.40;99.90;;;;;;5084277;28;20040;-79
2023/12/08 02:40:59;;;;;;;18.63;10.70;;;1.40;99.90;;;;;;5085174;28;20043;-79
2023/12/08 02:43:25;;;;;;;17.55;10.27;;;1.40;99.90;;;;;;5050491;28;20008;-79
2023/12/08 02:45:50;;;;;;;19.02;11.70;;;1.40;99.90;;;;;;5034368;28;20250;-79
2023/12/08 02:48:16;;;;;;;18.08;10.50;;;1.40;99.90;;;;;;5084599;28;20016;-79
2023/12/08 02:50:42;;;;;;;17.50;10.55;;;1.50;99.90;;;;;;5068839;28;20023;-78
2023/12/08 02:53:08;;;;;;;18.17;10.45;;;3.20;99.90;;;;;;5064961;28;20074;-79
2023/12/08 02:55:35;;;;;;;18.60;10.55;;;1.40;99.90;;;;;;5050955;28;20208;-79
2023/12/08 02:58:00;;;;;;;18.08;10.23;;;1.80;99.90;;;;;;5069921;28;20097;-79
2023/12/08 03:00:26;;;;;;;19.35;10.57;;;2.60;99.90;;;;;;5049961;28;20092;-79
2023/12/08 03:02:52;;;;;;;18.38;10.82;;;1.40;99.90;;;;;;5065625;28;20023;-79
2023/12/08 03:05:18;;;;;;;18.13;10.60;;;1.40;99.90;;;;;;5067105;28;20008;-79
2023/12/08 03:07:43;;;;;;;17.42;10.50;;;1.40;99.90;;;;;;5049374;28;20027;-79
2023/12/08 03:10:09;;;;;;;16.95;10.00;;;1.40;99.90;;;;;;5083898;28;20046;-79
2023/12/08 03:12:35;;;;;;;17.83;10.05;;;2.00;99.90;;;;;;5066915;28;20080;-79
2023/12/08 03:15:01;;;;;;;17.85;10.25;;;2.50;99.90;;;;;;5050187;28;20290;-79
2023/12/08 03:17:27;;;;;;;18.83;10.45;;;1.40;99.90;;;;;;5083919;28;20054;-79
2023/12/08 03:19:52;;;;;;;18.58;10.73;;;1.40;99.90;;;;;;5066358;28;20047;-79
2023/12/08 03:22:18;;;;;;;19.17;11.20;;;1.40;99.90;;;;;;5083466;28;20035;-79
2023/12/08 03:24:44;;;;;;;16.50;10.27;;;1.40;99.90;;;;;;5051484;28;20085;-79
2023/12/08 03:27:10;;;;;;;16.52;9.52;;;2.10;99.90;;;;;;5047652;28;20039;-79
2023/12/08 03:29:40;;;;;;;17.40;10.20;;;2.10;99.90;;;;;;5061344;28;20032;-79
2023/12/08 03:32:06;;;;;;;16.40;9.82;;;1.40;99.90;;;;;;5081251;28;20077;-79
2023/12/08 03:34:32;;;;;;;16.92;10.10;;;1.70;99.90;;;;;;5067470;28;20212;-79
2023/12/08 03:36:58;;;;;;;19.70;10.77;;;1.40;99.90;;;;;;5067884;28;20038;-79
2023/12/08 03:39:24;;;;;;;17.63;9.95;;;1.40;99.90;;;;;;5050366;28;20084;-79
2023/12/08 03:41:49;;;;;;;17.77;9.95;;;1.40;99.90;;;;;;5065159;28;20028;-79
2023/12/08 03:44:15;;;;;;;17.02;10.13;;;2.10;99.90;;;;;;5066643;28;20028;-79
2023/12/08 03:46:44;;;;;;;16.98;10.48;;;1.40;99.90;;;;;;5066543;28;20023;-79
2023/12/08 03:49:10;;;;;;;18.08;10.05;;;3.10;99.90;;;;;;5063729;28;20020;-78
2023/12/08 03:51:36;;;;;;;19.77;10.13;;;1.40;99.90;;;;;;5050540;28;20012;-79
2023/12/08 03:54:02;;;;;;;18.98;10.90;;;1.40;99.90;;;;;;5064202;28;20169;-79
2023/12/08 03:56:27;;;;;;;17.85;10.70;;;2.60;99.90;;;;;;5101210;28;20066;-79
2023/12/08 03:58:53;;;;;;;18.77;10.93;;;1.40;99.90;;;;;;5065029;28;20151;-79
2023/12/08 04:01:19;;;;;;;16.77;10.07;;;1.40;99.90;;;;;;5047413;28;20020;-79
2023/12/08 04:03:46;;;;;;;19.58;10.82;;;2.80;99.90;;;;;;5064756;28;20020;-79
2023/12/08 04:06:11;;;;;;;17.20;10.30;;;1.50;99.90;;;;;;5060431;28;20027;-79
2023/12/08 04:08:37;;;;;;;19.33;10.57;;;2.70;99.90;;;;;;5064259;28;20024;-79
2023/12/08 04:11:03;;;;;;;18.23;10.13;;;1.50;99.90;;;;;;5065678;28;20016;-79
2023/12/08 04:13:29;;;;;;;18.30;10.35;;;1.50;99.90;;;;;;5065695;28;20035;-79
2023/12/08 04:15:55;;;;;;;19.67;10.93;;;2.00;99.90;;;;;;5041991;28;20173;-79
2023/12/08 04:18:21;;;;;;;17.30;10.20;;;3.00;99.90;;;;;;5082413;28;20093;-79
2023/12/08 04:20:46;;;;;;;16.45;10.18;;;2.30;99.90;;;;;;5062270;28;20091;-79
2023/12/08 04:23:12;;;;;;;18.20;9.93;;;1.50;99.90;;;;;;5061708;28;20021;-79
2023/12/08 04:25:38;;;;;;;17.58;10.27;;;2.30;99.90;;;;;;5045493;28;20151;-79
2023/12/08 04:28:04;;;;;;;17.50;9.13;;;3.10;99.90;;;;;;5022842;28;20028;-79
2023/12/08 04:30:30;;;;;;;17.27;10.18;;;1.50;99.90;;;;;;5079072;28;20086;-79
2023/12/08 04:32:56;;;;;;;16.90;9.63;;;2.30;99.90;;;;;;5062801;28;20060;-79
2023/12/08 04:35:22;;;;;;;18.00;10.13;;;1.50;99.90;;;;;;5077116;28;20028;-79
2023/12/08 04:37:50;;;;;;;16.33;9.30;;;2.90;99.90;;;;;;5079672;28;20028;-79
2023/12/08 04:40:16;;;;;;;16.95;9.35;;;1.40;99.90;;;;;;5045957;28;20336;-79
2023/12/08 04:42:42;;;;;;;16.52;9.45;;;2.20;99.90;;;;;;5062347;28;20021;-79
2023/12/08 04:45:09;;;;;;;17.55;9.50;;;1.40;99.90;;;;;;5061977;28;20028;-79
2023/12/08 04:47:36;;;;;;;16.52;9.82;;;1.40;99.90;;;;;;5061065;28;20048;-79
2023/12/08 04:50:02;;;;;;;19.00;9.73;;;2.30;99.90;;;;;;5079523;28;20084;-79
2023/12/08 04:52:28;;;;;;;17.30;10.60;;;1.30;99.90;;;;;;5045584;28;20025;-79
2023/12/08 04:54:54;;;;;;;17.92;9.63;;;1.40;99.90;;;;;;5061304;28;20016;-79
2023/12/08 04:57:20;;;;;;;17.10;9.75;;;1.80;99.90;;;;;;5060676;28;20232;-79
2023/12/08 04:59:46;;;;;;;19.77;10.43;;;1.20;99.90;;;;;;5078183;28;20035;-80
2023/12/08 05:02:11;;;;;;;16.50;9.88;;;2.60;99.90;;;;;;5060778;28;20008;-79
2023/12/08 05:04:37;;;;;;;16.20;9.10;;;1.70;99.90;;;;;;5029798;28;20036;-80
2023/12/08 05:07:03;;;;;;;15.07;9.30;;;1.20;99.90;;;;;;5044945;28;20251;-80
2023/12/08 05:09:29;;;;;;;17.95;10.27;;;1.20;99.90;;;;;;5059880;28;20033;-80
2023/12/08 05:11:55;;;;;;;15.95;9.23;;;1.30;99.90;;;;;;5078750;28;20170;-79
2023/12/08 05:14:20;;;;;;;16.58;9.50;;;1.10;99.90;;;;;;5043045;28;20017;-79
2023/12/08 05:16:47;;;;;;;18.10;10.10;;;1.40;99.90;;;;;;5062011;28;20021;-79
2023/12/08 05:19:12;;;;;;;19.13;9.38;;;2.60;99.90;;;;;;5037114;28;20467;-79
2023/12/08 05:21:38;;;;;;;16.85;9.50;;;1.10;99.90;;;;;;5077544;28;20032;-80
2023/12/08 05:24:04;;;;;;;16.92;9.35;;;2.10;99.90;;;;;;5062331;28;20017;-79
2023/12/08 05:26:32;;;;;;;17.48;9.68;;;1.00;99.90;;;;;;5061121;28;20024;-79
2023/12/08 05:28:57;;;;;;;16.50;9.88;;;2.40;99.90;;;;;;5059428;28;20178;-79
2023/12/08 05:31:23;;;;;;;17.17;9.80;;;1.80;99.90;;;;;;5061441;28;20020;-79
2023/12/08 05:33:49;;;;;;;18.15;10.13;;;1.50;99.90;;;;;;5029810;28;20021;-80
2023/12/08 05:36:14;;;;;;;16.02;9.35;;;2.90;99.90;;;;;;5061173;28;20020;-79
2023/12/08 05:38:40;;;;;;;17.88;10.35;;;2.50;99.90;;;;;;5058931;28;20275;-80
2023/12/08 05:41:07;;;;;;;18.13;9.90;;;1.50;99.90;;;;;;5061313;28;20032;-79
2023/12/08 05:43:33;;;;;;;16.98;9.45;;;2.80;99.90;;;;;;5059102;28;20008;-79
2023/12/08 05:45:59;;;;;;;16.48;9.93;;;2.00;99.90;;;;;;5065704;28;20379;-79
2023/12/08 05:48:24;;;;;;;17.30;10.23;;;1.00;99.90;;;;;;5043366;28;20337;-79
2023/12/08 05:50:50;;;;;;;16.48;9.45;;;1.60;99.90;;;;;;5058550;28;20028;-79
2023/12/08 05:53:16;;;;;;;16.83;9.48;;;1.40;99.90;;;;;;5072759;28;20047;-79
2023/12/08 05:55:42;;;;;;;17.88;10.20;;;2.40;99.90;;;;;;5041484;28;20021;-79
2023/12/08 05:58:07;;;;;;;15.90;9.18;;;2.70;99.90;;;;;;5060101;28;20020;-79
2023/12/08 06:00:33;;;;;;;18.27;9.85;;;1.00;99.90;;;;;;5074927;28;20254;-79
2023/12/08 06:02:59;;;;;;;17.48;9.65;;;2.00;99.90;;;;;;5061921;28;20088;-79
2023/12/08 06:05:25;;;;;;;17.48;9.82;;;1.40;99.90;;;;;;5057618;28;20074;-79
2023/12/08 06:07:51;;;;;;;16.60;9.70;;;1.00;99.90;;;;;;5064438;28;20056;-79
2023/12/08 06:10:17;;;;;;;17.50;10.68;;;1.70;99.90;;;;;;5048135;28;20030;-78
2023/12/08 06:12:43;;;;;;;16.77;9.75;;;1.00;99.90;;;;;;5047924;28;20063;-79
2023/12/08 06:15:10;;;;;;;17.48;9.38;;;1.90;99.90;;;;;;5032699;28;20024;-79
2023/12/08 06:17:36;;;;;;;15.98;9.20;;;0.90;99.90;;;;;;5079199;28;20021;-79
2023/12/08 06:20:09;;;;;;;16.83;10.23;;;0.90;99.90;;;;;;5047017;28;20044;-79
2023/12/08 06:22:35;;;;;;;;;;;0.90;99.90;;;;;;5065305;28;20032;-79
2023/12/08 06:25:01;;;;;;;15.63;9.52;;;0.90;99.90;;;;;;5062719;28;19905;-78
2023/12/08 06:27:27;;;;;;;17.70;10.63;;;2.50;99.90;;;;;;5031367;28;20074;-79
2023/12/08 06:29:53;;;;;;;18.13;10.77;;;1.70;99.90;;;;;;5043480;28;20403;-79
2023/12/08 06:32:18;;;;;;;16.23;9.82;;;1.20;99.90;;;;;;5066481;28;20087;-79
2023/12/08 06:34:48;;;;;;;18.52;10.25;;;3.10;99.90;;;;;;5066235;28;20088;-79
2023/12/08 06:37:13;;;;;;;17.70;10.00;;;2.10;99.90;;;;;;5065844;28;20182;-79
2023/12/08 06:39:40;;;;;;;16.45;9.20;;;0.90;99.90;;;;;;5066543;28;20100;-79
2023/12/08 06:42:06;;;;;;;17.40;9.73;;;2.70;99.90;;;;;;5083824;28;20055;-79
2023/12/08 06:44:32;;;;;;;17.15;9.77;;;1.50;99.90;;;;;;5067070;28;20079;-79
2023/12/08 06:46:58;;;;;;;19.00;10.35;;;2.40;99.90;;;;;;5031326;28;20031;-79
2023/12/08 06:49:24;;;;;;;17.80;11.15;;;2.40;99.90;;;;;;5063398;28;20267;-79
2023/12/08 06:51:50;;;;;;;18.92;10.90;;;1.90;99.90;;;;;;5062614;28;20284;-79
2023/12/08 06:54:16;;;;;;;17.98;10.88;;;0.90;99.90;;;;;;5063056;28;20024;-79
2023/12/08 06:56:42;;;;;;;18.75;10.75;;;1.70;99.90;;;;;;5047774;28;20014;-79
2023/12/08 06:59:08;;;;;;;19.60;10.48;;;2.10;99.90;;;;;;5063346;28;20048;-79
2023/12/08 07:01:35;;;;;;;19.63;10.05;;;0.90;99.90;;;;;;5061701;28;20020;-79
2023/12/08 07:04:03;;;;;;;19.88;11.43;;;1.00;99.90;;;;;;5061976;28;20028;-79
2023/12/08 07:06:30;;;;;;;19.35;11.45;;;2.30;99.90;;;;;;5062629;28;20052;-79
2023/12/08 07:08:56;;;;;;;19.42;10.77;;;2.20;99.90;;;;;;5046766;28;20024;-79
2023/12/08 07:11:22;;;;;;;19.40;10.85;;;2.10;99.90;;;;;;5045945;28;20138;-79
2023/12/08 07:13:48;;;;;;;20.95;10.95;;;1.00;99.90;;;;;;5047272;28;20307;-78
2023/12/08 07:16:14;;;;;;;17.00;9.63;;;2.20;99.90;;;;;;5065718;28;20032;-79
2023/12/08 07:18:40;;;;;;;18.92;10.95;;;2.40;99.90;;;;;;5063439;28;20189;-79
2023/12/08 07:21:06;;;;;;;19.10;11.27;;;0.90;99.90;;;;;;5050845;28;20047;-79
2023/12/08 07:23:32;;;;;;;20.02;11.40;;;2.20;99.90;;;;;;5085653;28;20024;-79
2023/12/08 07:25:57;;;;;;;17.17;10.55;;;2.10;99.90;;;;;;5077890;28;20024;-79
2023/12/08 07:28:23;;;;;;;18.50;11.20;;;0.90;99.90;;;;;;5064175;28;20086;-79
2023/12/08 07:30:49;;;;;;;18.73;11.27;;;1.60;99.90;;;;;;5081697;28;20020;-80
2023/12/08 07:33:14;;;;;;;17.65;10.57;;;2.50;99.90;;;;;;5085551;28;20013;-81
2023/12/08 07:35:40;;;;;;;18.30;11.35;;;1.70;99.90;;;;;;5048095;28;20036;-81
2023/12/08 07:38:06;;;;;;;19.10;11.20;;;2.20;99.90;;;;;;5063992;28;20036;-81
2023/12/08 07:40:32;;;;;;;16.48;9.98;;;0.90;99.90;;;;;;5076964;28;20016;-81
2023/12/08 07:42:58;;;;;;;17.73;10.52;;;2.80;99.90;;;;;;5079184;28;20058;-81
2023/12/08 07:45:23;;;;;;;19.95;11.82;;;2.10;99.90;;;;;;5077569;28;20066;-80
2023/12/08 07:47:49;;;;;;;19.42;10.80;;;0.90;99.90;;;;;;5062828;28;20028;-81
2023/12/08 07:50:15;;;;;;;19.42;11.07;;;0.90;99.90;;;;;;5051598;28;20036;-81
2023/12/08 07:52:44;;;;;;;18.05;10.95;;;1.60;99.90;;;;;;5049261;28;20026;-80
2023/12/08 07:55:09;;;;;;;17.13;10.15;;;1.00;99.90;;;;;;5060349;28;20312;-80
2023/12/08 07:57:36;;;;;;;18.80;11.05;;;0.90;99.90;;;;;;5048651;28;20024;-81
2023/12/08 08:00:05;;;;;;;17.08;10.07;;;2.10;99.90;;;;;;5060702;28;20124;-81
2023/12/08 08:02:31;;;;;;;21.75;12.93;;;2.70;99.90;;;;;;5095136;28;20100;-81
2023/12/08 08:04:58;;;;;;;18.15;10.68;;;1.00;99.90;;;;;;5078040;28;20024;-80
2023/12/08 08:07:24;;;;;;;19.17;10.48;;;2.30;99.90;;;;;;5078461;28;20159;-81
2023/12/08 08:09:51;;;;;;;19.30;11.35;;;1.00;99.90;;;;;;5047151;28;20024;-81
2023/12/08 08:12:17;;;;;;;19.02;10.63;;;1.80;99.90;;;;;;5042521;28;20111;-81
2023/12/08 08:14:43;;;;;;;18.50;11.35;;;1.90;99.90;;;;;;5079825;28;20756;-80
2023/12/08 08:17:08;;;;;;;20.58;11.75;;;1.50;99.90;;;;;;5077230;28;20086;-80
2023/12/08 08:19:34;;;;;;;18.67;10.70;;;1.70;99.90;;;;;;5046480;28;20044;-81
2023/12/08 08:22:00;;;;;;;19.88;11.70;;;2.70;99.90;;;;;;5046393;28;20044;-81
2023/12/08 08:24:27;;;;;;;18.17;10.95;;;1.30;99.90;;;;;;5061949;28;20021;-81
2023/12/08 08:26:52;;;;;;;20.08;12.00;;;2.30;99.90;;;;;;5046337;28;20151;-81
2023/12/08 08:29:18;;;;;;;18.73;11.23;;;2.90;99.90;;;;;;5043789;28;20058;-81
2023/12/08 08:31:44;;;;;;;18.25;10.50;;;2.50;99.90;;;;;;5061000;28;20021;-82
2023/12/08 08:34:10;;;;;;;18.50;10.88;;;1.00;99.90;;;;;;5046047;28;20035;-81
2023/12/08 08:36:35;;;;;;;19.90;11.25;;;1.10;99.90;;;;;;5046354;28;20070;-82
2023/12/08 08:39:03;;;;;;;17.50;11.05;;;1.30;99.90;;;;;;5044136;28;20078;-81
2023/12/08 08:41:29;;;;;;;20.20;11.95;;;1.10;99.90;;;;;;5046501;28;20017;-81
2023/12/08 08:43:55;;;;;;;20.67;10.95;;;2.10;99.90;;;;;;5059905;28;20024;-81
2023/12/08 08:46:21;;;;;;;18.42;11.05;;;3.10;99.90;;;;;;5062370;28;20066;-81
2023/12/08 08:48:46;;;;;;;18.98;11.20;;;1.10;99.90;;;;;;5041967;28;20088;-81
2023/12/08 08:51:14;;;;;;;19.40;10.20;;;1.10;99.90;;;;;;5045527;28;20035;-81
2023/12/08 08:53:40;;;;;;;19.10;11.07;;;1.10;99.90;;;;;;5060138;28;20237;-81
2023/12/08 08:56:06;;;;;;;19.27;11.65;;;1.10;99.90;;;;;;5045904;28;20296;-81
2023/12/08 08:58:34;;;;;;;19.45;12.23;;;1.10;99.90;;;;;;5063409;28;20045;-81
2023/12/08 09:01:00;;;;;;;19.42;11.80;;;2.70;99.90;;;;;;5062361;28;20040;-81
2023/12/08 09:03:26;;;;;;;19.45;11.63;;;1.10;99.90;;;;;;5061025;28;20085;-81
2023/12/08 09:05:51;;;;;;;19.02;11.10;;;2.00;99.90;;;;;;5044653;28;20016;-81
2023/12/08 09:08:17;;;;;;;21.00;11.93;;;1.30;99.90;;;;;;5045975;28;20104;-81
2023/12/08 09:10:45;;;;;;;20.08;12.23;;;1.50;99.90;;;;;;5077116;28;20073;-81
2023/12/08 09:13:12;;;;;;;18.95;11.60;;;3.20;99.90;;;;;;5059889;28;20024;-81
2023/12/08 09:15:38;;;;;;;18.55;11.32;;;;;;;;;;5060941;28;20032;-81
2023/12/08 09:18:04;;;;;;;19.13;11.43;;;1.20;99.90;;;;;;5077816;28;20032;-81
2023/12/08 09:20:30;;;;;;;19.15;11.88;;;1.20;99.90;;;;;;5044031;28;20328;-81
2023/12/08 09:22:55;;;;;;;20.40;12.50;;;2.20;99.90;;;;;;5061589;28;20025;-81
2023/12/08 09:25:24;;;;;;;18.70;11.32;;;1.20;99.90;;;;;;5061803;28;20099;-81
2023/12/08 09:27:49;;;;;;;19.42;11.43;;;2.30;99.90;;;;;;5061066;28;20174;-81
2023/12/08 09:30:15;;;;;;;20.23;11.48;;;1.60;99.90;;;;;;5042972;28;20036;-81
2023/12/08 09:32:41;;;;;;;19.15;10.70;;;1.30;99.90;;;;;;5045720;28;20070;-81
2023/12/08 09:35:07;;;;;;;18.42;10.98;;;1.30;99.90;;;;;;5069674;28;20036;-81
2023/12/08 09:37:32;;;;;;;19.10;11.23;;;2.00;99.90;;;;;;5028935;28;20056;-81
2023/12/08 09:39:58;;;;;;;18.10;10.88;;;1.40;99.90;;;;;;5042929;28;20044;-81
2023/12/08 09:42:36;;;;;;;18.15;11.02;;;2.80;99.90;;;;;;5077116;28;20016;-81
2023/12/08 09:45:05;;;;;;;18.60;11.07;;;2.80;99.90;;;;;;5076820;28;20306;-81
2023/12/08 09:47:34;;;;;;;20.55;11.77;;;1.30;99.90;;;;;;5044664;28;20024;-81
2023/12/08 09:50:02;;;;;;;19.35;11.75;;;2.50;99.90;;;;;;5042574;28;20032;-81
2023/12/08 09:52:29;;;;;;;18.67;10.90;;;2.30;99.90;;;;;;5077944;28;20056;-81
2023/12/08 09:54:56;;;;;;;16.88;10.63;;;1.40;99.90;;;;;;5062290;28;20024;-81
2023/12/08 09:57:22;;;;;;;20.73;11.70;;;2.70;99.90;;;;;;5061618;28;20028;-81
2023/12/08 09:59:51;;;;;;;19.17;10.98;;;2.60;99.90;;;;;;5074865;28;20040;-81
2023/12/08 10:02:18;;;;;;;17.98;10.80;;;1.40;99.90;;;;;;5076114;28;20056;-81
2023/12/08 10:04:44;;;;;;;19.27;11.82;;;3.10;99.90;;;;;;5061722;28;20012;-81
2023/12/08 10:07:10;;;;;;;18.83;11.05;;;1.40;99.90;;;;;;5061736;28;20372;-81
2023/12/08 10:09:37;;;;;;;18.85;10.88;;;1.40;99.90;;;;;;5076773;28;20174;-81
2023/12/08 10:12:03;;;;;;;19.25;11.05;;;1.40;99.90;;;;;;5058512;28;20021;-81
2023/12/08 10:14:29;;;;;;;18.40;11.07;;;1.40;99.90;;;;;;5029618;28;20148;-81
2023/12/08 10:16:55;;;;;;;19.60;11.27;;;2.30;99.90;;;;;;5043386;28;21513;-81
2023/12/08 10:19:21;;;;;;;19.70;10.93;;;1.40;99.90;;;;;;5047871;28;20020;-81
2023/12/08 10:22:03;;;;;;;18.50;11.00;;;1.40;99.90;;;;;;5050296;28;20028;-81
2023/12/08 10:24:30;;;;;;;19.08;10.95;;;1.50;99.90;;;;;;5080875;28;20437;-81
2023/12/08 10:27:00;;;;;;;19.45;11.20;;;1.90;99.90;;;;;;5081325;28;20079;-81
2023/12/08 10:29:31;;;;;;;19.17;11.13;;;3.00;99.90;;;;;;5064101;28;20083;-81
2023/12/08 10:32:00;;;;;;;18.75;11.10;;;1.50;99.90;;;;;;5081658;28;20020;-81
2023/12/08 10:34:27;;;;;;;17.77;10.57;;;1.40;99.90;;;;;;5062264;28;20032;-81
2023/12/08 10:36:54;;;;;;;19.80;11.63;;;2.60;99.90;;;;;;5078905;28;20024;-81
2023/12/08 10:39:20;;;;;;;18.05;10.70;;;1.80;99.90;;;;;;5063355;28;20095;-81
2023/12/08 10:41:55;;;;;;;20.13;11.15;;;3.50;99.90;;;;;;5027133;28;20036;-81
2023/12/08 10:44:21;;;;;;;18.65;10.85;;;1.50;99.90;;;;;;5051222;28;20043;-81
2023/12/08 10:46:50;;;;;;;21.02;12.00;;;3.20;99.90;;;;;;5047346;28;20043;-81
2023/12/08 10:49:21;;;;;;;19.63;11.65;;;2.30;99.90;;;;;;5048607;28;20083;-81
2023/12/08 10:51:48;;;;;;;18.98;11.00;;;1.90;99.90;;;;;;5050124;28;20616;-81
2023/12/08 10:54:18;;;;;;;19.85;11.90;;;1.90;99.90;;;;;;5080390;28;20325;-81
2023/12/08 10:56:45;;;;;;;20.38;12.52;;;2.90;99.90;;;;;;5084950;28;20058;-81
2023/12/08 10:59:15;;;;;;;19.05;10.82;;;1.50;99.90;;;;;;5067722;28;20308;-81
2023/12/08 11:01:42;;;;;;;20.75;12.20;;;2.40;99.90;;;;;;5069337;28;20162;-81
2023/12/08 11:04:12;;;;;;;21.40;12.30;;;2.40;99.90;;;;;;5048812;28;20095;-81
2023/12/08 11:06:44;;;;;;;19.20;11.27;;;2.90;99.90;;;;;;5085443;28;20016;-81
2023/12/08 11:09:15;;;;;;;20.48;11.98;;;1.60;99.90;;;;;;5066113;28;20209;-81
2023/12/08 11:11:48;;;;;;;19.63;11.82;;;3.30;99.90;;;;;;5084132;28;20028;-81
2023/12/08 11:14:47;;;;;;;19.42;12.05;;;1.70;99.90;;;;;;5066761;28;20104;-81
2023/12/08 11:17:26;;;;;;;20.17;11.82;;;1.70;99.90;;;;;;5050240;28;20058;-81
2023/12/08 11:19:53;;;;;;;19.85;11.13;;;2.10;99.90;;;;;;5064777;28;20055;-81
2023/12/08 11:22:19;;;;;;;20.42;11.73;;;1.70;99.90;;;;;;5067282;28;20281;-82
2023/12/08 11:24:46;;;;;;;19.92;12.25;;;2.10;99.90;;;;;;5067387;28;20247;-81
2023/12/08 11:27:27;;;;;;;20.27;10.70;;;1.70;99.90;;;;;;5066812;28;20043;-81
2023/12/08 11:30:27;;;;;;;20.95;12.52;;;1.70;99.90;;;;;;5081966;28;20023;-81
2023/12/08 11:33:19;;;;;;;20.15;11.95;;;1.80;99.90;;;;;;5081600;28;20027;-81
2023/12/08 11:35:51;;;;;;;21.38;12.32;;;1.70;99.90;;;;;;5058608;28;20036;-82
2023/12/08 11:38:28;;;;;;;21.15;12.48;;;1.70;99.90;;;;;;5052175;28;20036;-81
2023/12/08 11:40:56;;;;;;;20.90;12.48;;;1.70;99.90;;;;;;5067454;28;20219;-81
2023/12/08 11:43:23;;;;;;;20.05;12.30;;;1.80;99.90;;;;;;5035955;28;20171;-81
2023/12/08 11:45:50;;;;;;;22.05;13.18;;;3.00;99.90;;;;;;5067205;28;20024;-81
2023/12/08 11:48:15;;;;;;;21.15;12.63;;;1.80;99.90;;;;;;5067083;28;20673;-81
2023/12/08 11:50:41;;;;;;;21.08;12.93;;;3.10;99.90;;;;;;5048859;28;20032;-81
2023/12/08 11:53:07;;;;;;;21.58;13.05;;;2.60;99.90;;;;;;5063352;28;20034;-81
2023/12/08 11:55:33;;;;;;;23.98;12.98;;;3.20;99.90;;;;;;5050942;28;20028;-82
2023/12/08 11:57:58;;;;;;;22.20;13.20;;;1.90;99.90;;;;;;5065738;28;20020;-81
2023/12/08 12:00:26;;;;;;;23.55;12.63;;;3.70;99.90;;;;;;5065216;28;20218;-81
2023/12/08 12:02:53;;;;;;;23.88;12.82;;;1.90;99.90;;;;;;5051012;28;20075;-81
2023/12/08 12:05:20;;;;;;;23.88;13.30;;;1.90;99.90;;;;;;5066849;28;20024;-81
2023/12/08 12:07:49;;;;;;;24.65;13.82;;;1.90;99.90;;;;;;5066817;28;20016;-81
2023/12/08 12:10:34;;;;;;;25.70;13.45;;;1.90;99.90;;;;;;5079417;28;20165;-81
2023/12/08 12:13:12;;;;;;;27.42;13.10;;;3.10;99.90;;;;;;5048531;28;20155;-82
2023/12/08 12:15:40;;;;;;;24.40;13.15;;;1.90;99.90;;;;;;5083911;28;20051;-81
2023/12/08 12:18:06;;;;;;;25.75;13.55;;;3.50;99.90;;;;;;5050759;28;20024;-82
2023/12/08 12:20:36;;;;;;;26.65;13.93;;;2.00;99.90;;;;;;5074257;28;20305;-81
2023/12/08 12:23:03;;;;;;;24.52;13.05;;;2.00;99.90;;;;;;5094374;28;20028;-81
2023/12/08 12:25:28;;;;;;;26.05;14.00;;;1.90;99.90;;;;;;5062386;28;20202;-81
2023/12/08 12:27:54;;;;;;;25.98;14.40;;;1.90;99.90;;;;;;5079632;28;20189;-81
2023/12/08 12:30:21;;;;;;;29.08;14.77;;;1.90;99.90;;;;;;5093867;28;20056;-81
2023/12/08 12:32:50;;;;;;;27.38;13.32;;;2.00;99.90;;;;;;5062178;28;20028;-81
2023/12/08 12:35:16;;;;;;;30.15;14.70;;;2.00;99.90;;;;;;5044202;28;20070;-81